Time;durP1;ratioP1;P1;durP2;ratioP2;P2;SDS_P1;SDS_P2;PMS_P1;PMS_P2;Temp;Humidity;BMP_temperature;BMP_pressure;BME280_temperature;BME280_humidity;BME280_pressure;Samples;Min_cycle;Max_cycle;Signal;HPM_P1;HPM_P2
2022/08/12 00:43:27;;;;;;;9.95;1.65;;;;;;;;;;5060451;28;20111;-59
2022/08/12 00:48:37;;;;;;;2.28;1.50;;;;;;;;;;5053969;28;19978;-59
2022/08/12 00:51:05;;;;;;;5.50;1.83;;;;;;;;;;5053633;28;20024;-60
2022/08/12 00:53:31;;;;;;;4.18;2.03;;;;;;;;;;5053845;28;20025;-59
2022/08/12 00:55:59;;;;;;;6.68;2.47;;;;;;;;;;5062762;28;20028;-59
2022/08/12 00:58:30;;;;;;;1.95;1.45;;;;;;;;;;5046304;28;20029;-58
2022/08/12 01:01:00;;;;;;;4.78;1.80;;;;;;;;;;5066123;28;20027;-59
2022/08/12 01:11:27;;;;;;;4.28;2.00;;;;;;;;;;5054088;28;20029;-59
2022/08/12 01:11:48;;;;;;;5.10;1.67;;;;;;;;;;5040350;28;20033;-59
2022/08/12 01:14:14;;;;;;;2.38;1.98;;;;;;;;;;5040590;28;20025;-59
2022/08/12 01:16:40;;;;;;;4.18;2.10;;;;;;;;;;5071032;28;20033;-59
2022/08/12 01:19:07;;;;;;;4.03;2.20;;;;;;;;;;5064107;28;20396;-59
2022/08/12 01:21:33;;;;;;;6.05;2.08;;;;;;;;;;5053762;28;20096;-59
2022/08/12 01:24:03;;;;;;;5.97;2.33;;;;;;;;;;5053491;28;20029;-59
2022/08/12 01:26:31;;;;;;;3.83;2.33;;;;;;;;;;5054666;28;20486;-59
2022/08/12 01:28:58;;;;;;;5.30;2.78;;;;;;;;;;5059786;28;20029;-58
2022/08/12 01:31:24;;;;;;;;;;;;;;;;;;5046706;28;20036;-59
2022/08/12 01:34:02;;;;;;;4.43;2.25;;;;;;;;;;5053524;28;20011;-58
2022/08/12 01:36:28;;;;;;;;;;;;;;;;;;5069476;28;20494;-58
2022/08/12 01:39:00;;;;;;;4.43;2.58;;;;;;;;;;5067681;28;19908;-57
2022/08/12 01:41:29;;;;;;;7.70;2.97;;;;;;;;;;5053838;28;20123;-58
2022/08/12 01:43:59;;;;;;;4.47;2.50;;;;;;;;;;5042481;28;20028;-59
2022/08/12 01:46:32;;;;;;;8.23;2.65;;;;;;;;;;5070269;28;20040;-58
2022/08/12 01:49:19;;;;;;;4.35;2.70;;;;;;;;;;5065537;28;20409;-60
2022/08/12 01:51:49;;;;;;;3.53;2.70;;;;;;;;;;5053254;28;20029;-58
2022/08/12 01:54:17;;;;;;;6.30;2.70;;;;;;;;;;5053098;28;20109;-59
2022/08/12 01:56:58;;;;;;;3.75;2.78;;;;;;;;;;5066652;28;20035;-59
2022/08/12 01:59:49;;;;;;;6.05;3.15;;;;;;;;;;5070929;28;20035;-59
2022/08/12 02:02:21;;;;;;;6.32;3.42;;;;;;;;;;5072790;28;20028;-57
2022/08/12 02:13:41;;;;;;;6.07;3.08;;;;;;;;;;5069756;28;20051;-59
2022/08/12 02:16:13;;;;;;;6.22;3.50;;;;;;;;;;5070861;28;20028;-59
2022/08/12 02:18:39;;;;;;;3.45;3.10;;;;;;;;;;5068371;28;20029;-59
2022/08/12 02:21:07;;;;;;;3.00;2.60;;;;;;;;;;5055161;28;20051;-58
2022/08/12 02:23:35;;;;;;;19.23;3.60;;;;;;;;;;5054032;28;20294;-58
2022/08/12 02:26:05;;;;;;;3.97;2.53;;;;;;;;;;5072193;28;20033;-57
2022/08/12 02:28:31;;;;;;;5.82;3.40;;;;;;;;;;5069047;28;20425;-58
2022/08/12 02:31:01;;;;;;;5.63;3.40;;;;;;;;;;5066675;28;20082;-59
2022/08/12 02:33:28;;;;;;;4.63;3.60;;;;;;;;;;5053540;28;20633;-58
2022/08/12 02:35:54;;;;;;;3.72;3.28;;;;;;;;;;5052388;28;20499;-59
2022/08/12 02:38:21;;;;;;;5.32;3.85;;;;;;;;;;5053437;28;20028;-59
2022/08/12 02:40:49;;;;;;;5.32;3.40;;;;;;;;;;5052830;28;20497;-59
2022/08/12 02:43:30;;;;;;;4.07;3.67;;;;;;;;;;5052097;28;20032;-59
2022/08/12 02:45:59;;;;;;;5.50;3.15;;;;;;;;;;5056264;28;20434;-59
2022/08/12 02:48:29;;;;;;;5.22;3.15;;;;;;;;;;5053132;28;20022;-60
2022/08/12 02:50:57;;;;;;;4.03;3.58;;;;;;;;;;5051014;28;20383;-59
2022/08/12 02:53:23;;;;;;;4.82;3.08;;;;;;;;;;5059040;28;20369;-59
2022/08/12 02:55:50;;;;;;;5.97;3.75;;;;;;;;;;5062947;28;20107;-59
2022/08/12 02:58:16;;;;;;;4.10;3.20;;;;;;;;;;5052122;28;20030;-59
2022/08/12 03:00:43;;;;;;;4.47;2.88;;;;;;;;;;5063196;28;20505;-59
2022/08/12 03:03:11;;;;;;;5.75;2.97;;;;;;;;;;5064911;28;20037;-59
2022/08/12 03:05:41;;;;;;;5.78;3.50;;;;;;;;;;5071876;28;20047;-58
2022/08/12 03:08:09;;;;;;;4.13;3.47;;;;;;;;;;5071387;28;20031;-58
2022/08/12 03:10:40;;;;;;;6.22;3.80;;;;;;;;;;5057616;28;20074;-60
2022/08/12 03:13:07;;;;;;;4.07;3.47;;;;;;;;;;5049366;28;20479;-58
2022/08/12 03:15:34;;;;;;;;;;;;;;;;;;5052164;28;20480;-57
2022/08/12 03:18:06;;;;;;;6.10;4.03;;;;;;;;;;5051774;28;20397;-58
2022/08/12 03:20:36;;;;;;;11.80;5.10;;;;;;;;;;5051669;28;20117;-58
2022/08/12 03:23:04;;;;;;;6.35;4.10;;;;;;;;;;5051698;28;20021;-58
2022/08/12 03:25:33;;;;;;;7.40;3.45;;;;;;;;;;5056662;28;20029;-58
2022/08/12 03:28:02;;;;;;;8.05;4.63;;;;;;;;;;5052420;28;20025;-60
2022/08/12 03:30:31;;;;;;;6.22;4.43;;;;;;;;;;5051594;28;20021;-59
2022/08/12 03:32:57;;;;;;;4.93;3.72;;;;;;;;;;5051321;28;20028;-58
2022/08/12 03:35:26;;;;;;;4.53;4.03;;;;;;;;;;5052658;28;20052;-59
2022/08/12 03:37:55;;;;;;;5.28;3.78;;;;;;;;;;5051418;28;20056;-59
2022/08/12 04:02:25;;;;;;;5.57;4.85;;;;;;;;;;5045886;28;20099;-59
2022/08/12 04:04:51;;;;;;;;;;;;;;;;;;5031680;28;20057;-59
2022/08/12 04:07:17;;;;;;;6.63;4.60;;;;;;;;;;5031330;28;20321;-57
2022/08/12 04:09:44;;;;;;;6.50;5.20;;;;;;;;;;5031382;28;20018;-59
2022/08/12 04:14:58;;;;;;;7.03;5.40;;;;;;;;;;5031292;28;19959;-60
2022/08/12 04:17:26;;;;;;;5.70;5.07;;;;;;;;;;5031392;28;20097;-59
2022/08/12 04:19:54;;;;;;;8.50;5.05;;;;;;;;;;5013652;28;20117;-60
2022/08/12 04:22:21;;;;;;;6.50;5.32;;;;;;;;;;5031165;28;20475;-59
2022/08/12 04:24:47;;;;;;;10.02;5.07;;;;;;;;;;5031085;28;20460;-61
2022/08/12 04:27:13;;;;;;;7.10;5.43;;;;;;;;;;5031307;28;20479;-60
2022/08/12 04:29:40;;;;;;;6.07;5.30;;;;;;;;;;5031243;28;20266;-60
2022/08/12 04:32:06;;;;;;;7.18;5.43;;;;;;;;;;5031199;28;20032;-60
2022/08/12 04:34:32;;;;;;;6.55;5.13;;;;;;;;;;5013467;28;20043;-60
2022/08/12 04:36:58;;;;;;;5.45;4.95;;;;;;;;;;5031225;28;20440;-60
2022/08/12 04:39:25;;;;;;;7.50;5.60;;;;;;;;;;5031164;28;20116;-60
2022/08/12 04:41:51;;;;;;;7.03;4.85;;;;;;;;;;5031064;28;20314;-59
2022/08/12 04:44:17;;;;;;;6.25;4.78;;;;;;;;;;5030882;28;20022;-59
2022/08/12 04:46:44;;;;;;;7.00;4.53;;;;;;;;;;5031006;28;20555;-60
2022/08/12 04:49:10;;;;;;;5.30;4.80;;;;;;;;;;5031064;28;20018;-60
2022/08/12 04:51:36;;;;;;;6.57;4.87;;;;;;;;;;5032642;28;20408;-60
2022/08/12 04:54:03;;;;;;;8.27;4.72;;;;;;;;;;5034396;28;20339;-60
2022/08/12 04:56:29;;;;;;;5.47;4.55;;;;;;;;;;5034576;28;20029;-60
2022/08/12 04:58:56;;;;;;;10.73;4.90;;;;;;;;;;5034603;28;20153;-60
2022/08/12 05:01:26;;;;;;;11.07;5.47;;;;;;;;;;5034402;28;20078;-60
2022/08/12 05:03:54;;;;;;;9.43;5.13;;;;;;;;;;5034246;28;20025;-60
2022/08/12 05:06:20;;;;;;;6.68;5.20;;;;;;;;;;5034285;28;20029;-60
2022/08/12 05:08:46;;;;;;;13.33;4.93;;;;;;;;;;5034267;28;20053;-60
2022/08/12 05:11:14;;;;;;;6.45;5.82;;;;;;;;;;5060809;23;20045;-55
2022/08/12 05:13:40;;;;;;;6.87;4.77;;;;;;;;;;5070451;28;20044;-52
2022/08/12 05:16:07;;;;;;;9.82;5.35;;;;;;;;;;5072820;28;20261;-54
2022/08/12 05:18:34;;;;;;;8.68;5.18;;;;;;;;;;5074096;28;20398;-51
2022/08/12 05:21:00;;;;;;;10.10;6.30;;;;;;;;;;5074004;28;20114;-52
2022/08/12 05:23:27;;;;;;;14.45;5.82;;;;;;;;;;5073757;28;20024;-51
2022/08/12 05:25:55;;;;;;;6.25;4.85;;;;;;;;;;5073852;28;20067;-54
2022/08/12 05:28:22;;;;;;;6.50;5.43;;;;;;;;;;5073750;28;20029;-53
2022/08/12 05:30:50;;;;;;;8.00;5.88;;;;;;;;;;5073874;28;20033;-52
2022/08/12 05:33:16;;;;;;;10.30;4.82;;;;;;;;;;5073599;28;20033;-51
2022/08/12 05:35:43;;;;;;;6.63;5.33;;;;;;;;;;5073888;28;20048;-51
2022/08/12 05:40:55;;;;;;;8.60;5.22;;;;;;;;;;5074024;28;20043;-55
2022/08/12 05:43:21;;;;;;;7.75;5.13;;;;;;;;;;5073314;28;20073;-55
2022/08/12 05:45:51;;;;;;;4.93;4.32;;;;;;;;;;5073572;28;20056;-51
2022/08/12 05:48:17;;;;;;;13.35;4.75;;;;;;;;;;5073403;28;20025;-52
2022/08/12 05:50:44;;;;;;;5.40;4.88;;;;;;;;;;5055457;28;20021;-52
2022/08/12 05:53:10;;;;;;;6.57;5.05;;;;;;;;;;5073086;28;20020;-54
2022/08/12 05:55:37;;;;;;;7.45;4.57;;;;;;;;;;5073347;28;20029;-61
2022/08/12 05:58:03;;;;;;;8.73;4.28;;;;;;;;;;5073408;28;20025;-60
2022/08/12 06:00:30;;;;;;;;;;;;;;;;;;5073365;28;20452;-61
2022/08/12 06:02:59;;;;;;;7.53;4.50;;;;;;;;;;5071657;28;19923;-61
2022/08/12 06:05:28;;;;;;;9.82;3.92;;;;;;;;;;5073013;28;20426;-61
2022/08/12 06:07:55;;;;;;;9.23;4.10;;;;;;;;;;5073068;28;20021;-61
2022/08/12 06:10:21;;;;;;;;;;;;;;;;;;5073684;28;20099;-61
2022/08/12 06:12:48;;;;;;;5.82;3.92;;;;;;;;;;5072576;28;19958;-60
2022/08/12 06:15:17;;;;;;;19.60;4.20;;;;;;;;;;5072889;28;20104;-61
2022/08/12 06:17:44;;;;;;;8.38;3.70;;;;;;;;;;5072862;28;20024;-60
2022/08/12 06:20:12;;;;;;;10.75;3.83;;;;;;;;;;5054832;28;20028;-61
2022/08/12 06:22:42;;;;;;;5.63;3.97;;;;;;;;;;5072637;28;20032;-61
2022/08/12 06:25:08;;;;;;;7.97;4.13;;;;;;;;;;5072643;28;20461;-60
2022/08/12 06:27:47;;;;;;;5.00;4.07;;;;;;;;;;5072656;28;20020;-61
2022/08/12 06:30:14;;;;;;;7.53;4.28;;;;;;;;;;5072601;28;20021;-53
2022/08/12 06:32:42;;;;;;;6.30;3.90;;;;;;;;;;5072685;28;20067;-56
2022/08/12 06:35:08;;;;;;;10.98;3.88;;;;;;;;;;5072672;28;20032;-56
2022/08/12 06:37:38;;;;;;;6.60;4.68;;;;;;;;;;5072456;28;20028;-57
2022/08/12 06:40:05;;;;;;;23.58;4.93;;;;;;;;;;5072421;28;20103;-55
2022/08/12 06:45:17;;;;;;;7.35;4.75;;;;;;;;;;5072476;28;20042;-55
2022/08/12 06:47:43;;;;;;;11.35;4.60;;;;;;;;;;5072294;28;20027;-53
2022/08/12 06:50:12;;;;;;;8.73;5.07;;;;;;;;;;5072183;28;20131;-55
2022/08/12 06:52:38;;;;;;;1835.15;213.75;;;;;;;;;;5071943;28;20258;-60
2022/08/12 06:55:06;;;;;;;271.38;37.80;;;;;;;;;;5072181;28;20025;-57
2022/08/12 06:57:32;;;;;;;27.00;6.93;;;;;;;;;;5072223;28;20037;-57
2022/08/12 06:59:58;;;;;;;226.67;35.10;;;;;;;;;;5072194;28;20150;-54
2022/08/12 07:02:24;;;;;;;7.30;4.90;;;;;;;;;;5071856;28;20029;-58
2022/08/12 07:04:51;;;;;;;21.20;4.95;;;;;;;;;;5071940;28;20115;-57
2022/08/12 07:07:17;;;;;;;;;;;;;;;;;;5072548;28;20066;-55
2022/08/12 07:09:43;;;;;;;7.65;4.03;;;;;;;;;;5071879;28;19905;-53
2022/08/12 07:12:18;;;;;;;9.68;4.22;;;;;;;;;;5071763;28;20079;-52
2022/08/12 07:14:50;;;;;;;14.00;5.10;;;;;;;;;;5071770;28;20050;-56
2022/08/12 07:17:16;;;;;;;15.60;4.45;;;;;;;;;;5071979;28;20103;-54
2022/08/12 07:19:43;;;;;;;10.80;4.67;;;;;;;;;;5071882;28;20028;-54
2022/08/12 07:22:12;;;;;;;14.95;5.15;;;;;;;;;;5071627;28;20251;-55
2022/08/12 07:24:39;;;;;;;11.57;4.85;;;;;;;;;;5071902;28;20474;-53
2022/08/12 07:27:05;;;;;;;7.80;5.30;;;;;;;;;;5071200;28;20024;-56
2022/08/12 07:29:31;;;;;;;9.93;7.70;;;;;;;;;;5071261;28;20021;-54
2022/08/12 07:31:58;;;;;;;10.65;5.75;;;;;;;;;;5069574;28;20137;-55
2022/08/12 07:34:25;;;;;;;6.07;4.22;;;;;;;;;;5071012;28;20115;-56
2022/08/12 07:36:51;;;;;;;10.43;5.65;;;;;;;;;;5070074;28;20634;-54
2022/08/12 07:39:17;;;;;;;11.20;4.90;;;;;;;;;;5070569;28;20044;-56
2022/08/12 07:41:43;;;;;;;4.65;4.25;;;;;;;;;;5071096;28;20098;-56
2022/08/12 07:44:12;;;;;;;8.18;3.55;;;;;;;;;;5071475;28;20393;-54
2022/08/12 07:46:40;;;;;;;5.60;3.72;;;;;;;;;;5071607;28;20475;-55
2022/08/12 07:49:09;;;;;;;6.78;3.45;;;;;;;;;;5071468;28;20112;-53
2022/08/12 07:51:35;;;;;;;11.07;3.97;;;;;;;;;;5071683;28;20021;-54
2022/08/12 07:54:07;;;;;;;13.73;4.20;;;;;;;;;;5071279;28;20055;-55
2022/08/12 07:56:34;;;;;;;8.63;3.60;;;;;;;;;;5071530;28;20428;-52
2022/08/12 07:59:01;;;;;;;6.65;3.92;;;;;;;;;;5071499;28;20470;-53
2022/08/12 08:01:27;;;;;;;7.55;3.67;;;;;;;;;;5071360;28;20034;-55
2022/08/12 08:06:41;;;;;;;10.50;2.97;;;;;;;;;;5071673;28;20391;-54
2022/08/12 08:09:07;;;;;;;7.35;2.72;;;;;;;;;;5071019;28;20031;-52
2022/08/12 08:14:19;;;;;;;6.75;2.50;;;;;;;;;;5071118;28;20039;-58
2022/08/12 08:16:47;;;;;;;13.00;3.33;;;;;;;;;;5071182;28;20020;-59
2022/08/12 08:19:22;;;;;;;5.80;3.10;;;;;;;;;;5071160;28;20025;-57
2022/08/12 08:21:48;;;;;;;8.15;2.45;;;;;;;;;;5071163;28;20074;-58
2022/08/12 08:24:14;;;;;;;4.47;2.67;;;;;;;;;;5071106;28;20111;-57
2022/08/12 08:26:44;;;;;;;8.98;3.25;;;;;;;;;;5073071;28;20020;-57
2022/08/12 08:29:13;;;;;;;5.25;3.08;;;;;;;;;;5075003;28;20024;-58
2022/08/12 08:31:42;;;;;;;4.22;3.42;;;;;;;;;;5074866;28;20031;-57
2022/08/12 08:34:08;;;;;;;7.80;3.22;;;;;;;;;;5074704;28;20480;-57
2022/08/12 08:36:35;;;;;;;5.35;3.25;;;;;;;;;;5074683;28;20024;-56
2022/08/12 08:39:03;;;;;;;7.68;2.78;;;;;;;;;;5074650;28;20077;-55
2022/08/12 08:44:13;;;;;;;4.68;2.50;;;;;;;;;;5074359;28;20040;-56
2022/08/12 08:46:41;;;;;;;6.40;3.00;;;;;;;;;;5074511;28;20021;-57
2022/08/12 08:49:07;;;;;;;7.15;3.38;;;;;;;;;;5074462;28;20024;-56
2022/08/12 08:51:34;;;;;;;4.88;2.90;;;;;;;;;;5074898;28;20023;-58
2022/08/12 08:54:00;;;;;;;8.45;3.55;;;;;;;;;;5074340;28;20024;-56
2022/08/12 08:56:28;;;;;;;4.30;2.97;;;;;;;;;;5074415;28;20021;-58
2022/08/12 08:58:54;;;;;;;7.82;2.80;;;;;;;;;;5074343;28;20375;-57
2022/08/12 09:01:21;;;;;;;10.18;2.78;;;;;;;;;;5074200;28;20475;-55
2022/08/12 09:03:47;;;;;;;5.75;2.90;;;;;;;;;;5074150;28;20025;-59
2022/08/12 09:06:13;;;;;;;4.68;2.75;;;;;;;;;;5074117;28;20031;-58
2022/08/12 09:08:40;;;;;;;4.72;2.72;;;;;;;;;;5074266;28;20060;-58
2022/08/12 09:13:51;;;;;;;7.45;2.85;;;;;;;;;;5073949;28;20055;-58
2022/08/12 09:16:18;;;;;;;12.32;3.05;;;;;;;;;;5056054;28;20074;-58
2022/08/12 09:18:44;;;;;;;3.90;2.63;;;;;;;;;;5074006;28;20375;-57
2022/08/12 09:21:10;;;;;;;3.88;2.15;;;;;;;;;;5073968;28;20410;-57
2022/08/12 09:23:36;;;;;;;5.60;2.00;;;;;;;;;;5073759;28;20025;-59
2022/08/12 09:26:03;;;;;;;4.60;2.72;;;;;;;;;;5073808;28;20021;-58
2022/08/12 09:28:29;;;;;;;4.30;2.20;;;;;;;;;;5073842;28;20036;-58
2022/08/12 09:30:58;;;;;;;4.30;2.30;;;;;;;;;;5073791;28;20554;-58
2022/08/12 09:33:27;;;;;;;4.32;2.10;;;;;;;;;;5073412;28;20458;-59
2022/08/12 09:35:54;;;;;;;6.90;2.60;;;;;;;;;;5073724;28;20028;-58
2022/08/12 09:38:20;;;;;;;4.55;2.83;;;;;;;;;;5072262;28;20055;-59
2022/08/12 09:40:46;;;;;;;2.97;2.10;;;;;;;;;;5073673;28;20055;-58
2022/08/12 09:45:59;;;;;;;4.20;1.90;;;;;;;;;;5073454;28;20035;-59
2022/08/12 09:48:25;;;;;;;4.82;1.95;;;;;;;;;;5073391;28;20024;-59
2022/08/12 09:50:52;;;;;;;4.20;2.25;;;;;;;;;;5073454;28;20371;-59
2022/08/12 09:53:23;;;;;;;5.55;2.25;;;;;;;;;;5073117;28;20055;-58
2022/08/12 09:55:51;;;;;;;3.03;2.28;;;;;;;;;;5073323;28;20028;-57
2022/08/12 09:58:17;;;;;;;5.78;2.85;;;;;;;;;;5073636;28;20024;-57
2022/08/12 10:00:45;;;;;;;6.15;2.20;;;;;;;;;;5073360;28;20482;-58
2022/08/12 10:03:13;;;;;;;4.45;2.17;;;;;;;;;;5072846;28;20029;-60
2022/08/12 10:05:42;;;;;;;3.35;2.05;;;;;;;;;;5073111;28;20036;-60
2022/08/12 10:08:12;;;;;;;3.90;2.17;;;;;;;;;;5055033;28;20494;-59
2022/08/12 10:13:43;;;;;;;3.30;1.70;;;;;;;;;;5072774;28;20070;-58
2022/08/12 10:16:21;;;;;;;9.73;1.50;;;;;;;;;;5072962;28;20502;-57
2022/08/12 10:18:52;;;;;;;6.82;1.67;;;;;;;;;;5073250;28;20028;-58
2022/08/12 10:21:20;;;;;;;9.20;2.05;;;;;;;;;;5072624;28;20518;-59
2022/08/12 10:23:47;;;;;;;5.38;1.40;;;;;;;;;;5072601;28;20029;-58
2022/08/12 10:31:45;;;;;;;3.88;2.38;;;;;;;;;;5072436;28;20031;-58
2022/08/12 10:34:12;;;;;;;;;;;;;;;;;;5054866;28;20367;-57
2022/08/12 10:36:39;;;;;;;2.22;1.83;;;;;;;;;;5072405;28;19911;-60
2022/08/12 10:39:06;;;;;;;4.82;2.00;;;;;;;;;;5072497;28;20024;-59
2022/08/12 10:44:17;;;;;;;5.88;2.60;;;;;;;;;;5052063;28;19958;-59
2022/08/12 10:46:44;;;;;;;2.28;1.70;;;;;;;;;;5054152;28;20020;-58
2022/08/12 10:49:11;;;;;;;6.30;3.00;;;;;;;;;;5071536;28;20020;-58
2022/08/12 10:51:38;;;;;;;4.00;2.10;;;;;;;;;;5052097;28;20177;-59
2022/08/12 10:54:04;;;;;;;3.85;2.28;;;;;;;;;;5071687;28;20028;-58
2022/08/12 10:56:31;;;;;;;3.42;1.73;;;;;;;;;;5053563;28;20107;-59
2022/08/12 10:58:58;;;;;;;4.20;2.20;;;;;;;;;;5072176;28;20044;-58
2022/08/12 11:01:24;;;;;;;5.35;2.35;;;;;;;;;;5053785;28;20029;-58
2022/08/12 11:03:50;;;;;;;3.80;2.58;;;;;;;;;;5071961;28;20020;-60
2022/08/12 11:06:20;;;;;;;5.65;2.97;;;;;;;;;;5071370;28;20024;-60
2022/08/12 11:08:47;;;;;;;2.78;2.10;;;;;;;;;;5071939;28;20021;-59
2022/08/12 11:11:16;;;;;;;3.13;1.77;;;;;;;;;;5071431;28;20521;-60
2022/08/12 11:13:43;;;;;;;6.15;2.03;;;;;;;;;;5075073;23;20044;-54
2022/08/12 11:16:09;;;;;;;2.40;1.73;;;;;;;;;;5071255;28;20406;-54
2022/08/12 11:18:36;;;;;;;9.52;2.53;;;;;;;;;;5065911;28;20132;-55
2022/08/12 11:21:02;;;;;;;3.05;2.42;;;;;;;;;;5051457;28;20074;-54
2022/08/12 11:23:28;;;;;;;5.57;2.00;;;;;;;;;;5053637;28;20039;-55
2022/08/12 11:25:55;;;;;;;7.03;1.95;;;;;;;;;;5071628;28;20029;-54
2022/08/12 11:28:21;;;;;;;7.68;2.67;;;;;;;;;;5082459;28;20111;-55
2022/08/12 11:30:47;;;;;;;6.93;2.05;;;;;;;;;;5091977;28;20024;-56
2022/08/12 11:33:13;;;;;;;16.02;11.30;;;;;;;;;;5059594;28;20131;-56
2022/08/12 11:35:42;;;;;;;108.00;89.82;;;;;;;;;;5073564;28;20028;-54
2022/08/12 11:38:09;;;;;;;3.17;2.28;;;;;;;;;;5072734;28;20507;-56
2022/08/12 11:40:35;;;;;;;5.32;1.55;;;;;;;;;;5071109;28;20025;-55
2022/08/12 11:43:01;;;;;;;;;;;;;;;;;;5071608;28;20060;-55
2022/08/12 11:45:28;;;;;;;6.05;1.67;;;;;;;;;;5071523;28;20374;-56
2022/08/12 11:47:54;;;;;;;4.18;1.50;;;;;;;;;;5080536;28;20020;-55
2022/08/12 11:50:21;;;;;;;1.90;1.20;;;;;;;;;;5078448;28;20033;-56
2022/08/12 11:52:48;;;;;;;4.03;1.40;;;;;;;;;;5071218;28;20067;-55
2022/08/12 11:55:14;;;;;;;4.97;1.45;;;;;;;;;;5071499;28;20114;-55
2022/08/12 11:57:56;;;;;;;3.03;1.63;;;;;;;;;;5077907;28;20058;-56
2022/08/12 12:00:22;;;;;;;3.67;1.40;;;;;;;;;;5091609;28;20036;-54
2022/08/12 12:02:48;;;;;;;3.03;1.58;;;;;;;;;;5095219;28;20124;-56
2022/08/12 12:05:15;;;;;;;4.13;1.50;;;;;;;;;;5094916;28;20024;-57
2022/08/12 12:07:41;;;;;;;;;;;;;;;;;;5071383;28;20028;-57
2022/08/12 12:10:07;;;;;;;4.18;1.77;;;;;;;;;;5075349;28;19904;-55
2022/08/12 12:12:34;;;;;;;3.80;1.90;;;;;;;;;;5056806;28;20033;-57
2022/08/12 12:14:59;;;;;;;;;;;;;;;;;;5092699;28;20461;-55
2022/08/12 12:17:26;;;;;;;1.02;0.98;;;;;;;;;;5093969;28;20350;-56
2022/08/12 12:19:52;;;;;;;4.53;1.42;;;;;;;;;;5095450;28;20563;-54
2022/08/12 12:22:19;;;;;;;8.25;1.60;;;;;;;;;;5095352;28;20534;-54
2022/08/12 12:24:49;;;;;;;2.85;1.48;;;;;;;;;;5094807;28;20036;-55
2022/08/12 12:27:18;;;;;;;1.92;1.50;;;;;;;;;;5092868;28;20440;-54
2022/08/12 12:29:44;;;;;;;5.78;1.30;;;;;;;;;;5076190;28;20039;-56
2022/08/12 12:32:10;;;;;;;3.78;1.45;;;;;;;;;;5074933;28;20047;-56
2022/08/12 12:34:36;;;;;;;3.70;1.80;;;;;;;;;;5074669;28;20032;-56
2022/08/12 12:37:03;;;;;;;2.88;1.58;;;;;;;;;;5074883;28;20063;-56
2022/08/12 12:39:29;;;;;;;4.07;1.30;;;;;;;;;;5036829;28;20036;-56
2022/08/12 12:41:55;;;;;;;3.65;1.40;;;;;;;;;;5093994;28;20032;-56
2022/08/12 12:44:21;;;;;;;3.83;1.67;;;;;;;;;;5079734;28;20379;-56
2022/08/12 12:46:47;;;;;;;7.32;1.48;;;;;;;;;;5094993;28;20027;-54
2022/08/12 12:49:14;;;;;;;2.97;1.67;;;;;;;;;;5077445;28;20035;-56
2022/08/12 12:51:40;;;;;;;2.47;1.20;;;;;;;;;;5094952;28;20150;-54
2022/08/12 12:54:06;;;;;;;4.38;1.40;;;;;;;;;;5094654;28;20028;-56
2022/08/12 12:56:32;;;;;;;3.47;1.60;;;;;;;;;;5094706;28;20020;-54
2022/08/12 12:58:59;;;;;;;4.95;1.25;;;;;;;;;;5076855;28;20449;-56
2022/08/12 13:01:25;;;;;;;3.50;1.42;;;;;;;;;;5092534;28;20379;-56
2022/08/12 13:03:58;;;;;;;13.35;3.05;;;;;;;;;;5094404;28;20447;-55
2022/08/12 13:06:25;;;;;;;5.10;1.40;;;;;;;;;;5094726;28;20032;-54
2022/08/12 13:08:53;;;;;;;1.77;1.40;;;;;;;;;;5094209;28;20614;-54
2022/08/12 13:11:21;;;;;;;3.53;1.25;;;;;;;;;;5076805;28;20032;-55
2022/08/12 13:13:51;;;;;;;1.33;1.15;;;;;;;;;;5064990;28;20032;-55
2022/08/12 13:16:20;;;;;;;2.83;1.20;;;;;;;;;;5074214;28;20025;-54
2022/08/12 13:18:50;;;;;;;5.70;1.98;;;;;;;;;;5089158;28;20040;-57
2022/08/12 13:21:17;;;;;;;9.20;2.08;;;;;;;;;;5092811;28;20111;-56
2022/08/12 13:23:46;;;;;;;5.93;1.50;;;;;;;;;;5092303;28;20026;-55
2022/08/12 13:26:14;;;;;;;4.88;1.13;;;;;;;;;;5094194;28;20057;-56
2022/08/12 13:28:51;;;;;;;2.47;1.10;;;;;;;;;;5080103;28;20021;-56
2022/08/12 13:31:18;;;;;;;3.30;1.35;;;;;;;;;;5093084;28;20031;-54
2022/08/12 13:33:45;;;;;;;1.20;1.10;;;;;;;;;;5093449;28;20103;-58
2022/08/12 13:36:11;;;;;;;9.07;1.88;;;;;;;;;;5075900;28;20028;-58
2022/08/12 13:38:38;;;;;;;1.75;1.10;;;;;;;;;;5093554;28;20032;-58
2022/08/12 13:41:05;;;;;;;4.88;3.90;;;;;;;;;;5075946;28;20028;-59
2022/08/12 13:43:32;;;;;;;6.20;5.57;;;;;;;;;;5073987;28;20032;-56
2022/08/12 13:45:59;;;;;;;2.25;1.20;;;;;;;;;;5080959;28;20028;-59
2022/08/12 13:48:25;;;;;;;1.35;1.15;;;;;;;;;;5073519;28;20023;-59
2022/08/12 13:50:51;;;;;;;3.22;1.00;;;;;;;;;;5074592;28;20501;-59
2022/08/12 13:53:18;;;;;;;3.42;1.65;;;;;;;;;;5073404;28;20516;-59
2022/08/12 13:55:46;;;;;;;2.75;1.10;;;;;;;;;;5073322;28;20454;-58
2022/08/12 13:58:15;;;;;;;3.63;1.40;;;;;;;;;;5074487;28;20584;-56
2022/08/12 14:00:44;;;;;;;5.00;1.52;;;;;;;;;;5073199;28;20024;-58
2022/08/12 14:03:13;;;;;;;8.18;1.27;;;;;;;;;;5073043;28;20043;-58
2022/08/12 14:05:39;;;;;;;1.98;1.33;;;;;;;;;;5073195;28;20036;-58
2022/08/12 14:08:06;;;;;;;2.40;1.20;;;;;;;;;;5076401;28;20055;-59
2022/08/12 14:10:37;;;;;;;4.18;1.13;;;;;;;;;;5072795;28;20028;-59
2022/08/12 14:13:05;;;;;;;2.05;1.13;;;;;;;;;;5077278;28;20038;-59
2022/08/12 14:15:32;;;;;;;3.13;1.08;;;;;;;;;;5063314;28;20032;-59
2022/08/12 14:18:11;;;;;;;2.70;0.80;;;;;;;;;;5071965;28;20021;-59
2022/08/12 14:20:38;;;;;;;16.35;1.67;;;;;;;;;;5067351;28;20078;-58
2022/08/12 14:23:04;;;;;;;10.40;1.42;;;;;;;;;;5072003;28;20036;-58
2022/08/12 14:25:30;;;;;;;6.28;1.55;;;;;;;;;;5072320;28;20486;-57
2022/08/12 14:28:11;;;;;;;2.70;1.00;;;;;;;;;;5072112;28;20103;-58
2022/08/12 14:30:42;;;;;;;5.28;1.42;;;;;;;;;;5034491;28;20029;-56
2022/08/12 14:33:09;;;;;;;5.65;1.23;;;26.30;45.30;;;;;;5063913;28;20016;-57
2022/08/12 14:35:35;;;;;;;3.17;1.25;;;;;;;;;;5071943;28;20028;-56
2022/08/12 14:38:11;;;;;;;10.30;1.25;;;;;;;;;;5072090;28;20470;-58
2022/08/12 14:40:39;;;;;;;5.55;1.15;;;;;;;;;;5072607;28;20028;-57
2022/08/12 14:43:05;;;;;;;3.40;1.40;;;;;;;;;;5072160;28;20432;-57
2022/08/12 14:45:35;;;;;;;1.20;1.00;;;;;;;;;;5072291;28;20462;-55
2022/08/12 14:48:02;;;;;;;3.53;1.30;;;;;;;;;;5053991;28;20070;-57
2022/08/12 14:50:28;;;;;;;4.45;1.25;;;;;;;;;;5087155;28;20367;-55
2022/08/12 14:52:54;;;;;;;2.97;1.38;;;;;;;;;;5090731;28;20020;-58
2022/08/12 14:55:20;;;;;;;3.75;1.65;;;;;;;;;;5072203;28;20082;-59
2022/08/12 14:57:54;;;;;;;1.70;1.33;;;;;;;;;;5074256;28;20057;-58
2022/08/12 15:03:07;;;;;;;1.83;1.30;;;;;;;;;;5074885;28;20070;-58
2022/08/12 15:05:37;;;;;;;9.35;1.30;;;;;;;;;;5073523;28;20032;-58
2022/08/12 15:08:13;;;;;;;3.33;1.45;;;;;;;;;;5088333;28;20020;-57
2022/08/12 15:10:39;;;;;;;3.60;1.15;;;;;;;;;;5077657;28;20027;-58
2022/08/12 15:13:06;;;;;;;1.55;1.17;;;;;;;;;;5060523;28;20107;-57
2022/08/12 15:15:37;;;;;;;5.68;1.10;;;;;;;;;;5083220;28;20495;-56
2022/08/12 15:18:03;;;;;;;4.85;1.30;;;;;;;;;;5079782;28;20016;-55
2022/08/12 15:20:29;;;;;;;3.65;1.20;;;;;;;;;;5070751;28;20052;-57
2022/08/12 15:22:55;;;;;;;1.33;1.00;;;;;;;;;;5073086;28;20028;-57
2022/08/12 15:25:22;;;;;;;3.28;1.00;;;;;;;;;;5091682;28;20032;-56
2022/08/12 15:27:51;;;;;;;3.47;1.13;;;;;;;;;;5091840;28;20025;-58
2022/08/12 15:30:18;;;;;;;0.57;0.57;;;;;;;;;;5091747;28;20027;-58
2022/08/12 15:32:45;;;;;;;2.15;1.17;;;;;;;;;;5083783;28;20031;-57
2022/08/12 15:35:13;;;;;;;1.10;1.00;;;;;;;;;;5065707;28;20025;-58
2022/08/12 15:37:40;;;;;;;2.92;1.05;;;43.00;24.70;;;;;;5071099;28;20019;-57
2022/08/12 15:40:06;;;;;;;1.52;1.13;;;;;;;;;;5067825;28;20020;-57
2022/08/12 15:42:33;;;;;;;2.70;0.95;;;;;;;;;;5091666;28;20027;-56
2022/08/12 15:44:59;;;;;;;1.33;0.88;;;;;;;;;;5073547;28;20105;-55
2022/08/12 15:47:27;;;;;;;3.60;0.93;;;;;;;;;;5073647;28;20020;-54
2022/08/12 15:49:53;;;;;;;3.65;1.40;;;;;;;;;;5091690;28;20490;-55
2022/08/12 15:52:26;;;;;;;3.33;1.13;;;;;;;;;;5071326;28;20024;-55
2022/08/12 15:54:52;;;;;;;2.97;0.93;;;;;;;;;;5071405;28;20033;-54
2022/08/12 15:57:19;;;;;;;1.85;1.10;;;;;;;;;;5053383;28;20047;-61
2022/08/12 15:59:45;;;;;;;3.25;1.23;;;44.40;23.60;;;;;;5072388;28;20059;-57
2022/08/12 16:02:13;;;;;;;;;;;;;;;;;;5074134;28;20483;-57
2022/08/12 16:04:40;;;;;;;4.85;1.10;;;;;;;;;;5071237;28;19954;-57
2022/08/12 16:07:06;;;;;;;4.97;1.20;;;;;;;;;;5077730;28;20024;-53
2022/08/12 16:09:32;;;;;;;8.52;1.38;;;;;;;;;;5069987;28;20017;-55
2022/08/12 16:12:02;;;;;;;;;;;;;;;;;;5071482;28;20036;-58
2022/08/12 16:14:29;;;;;;;22.98;20.60;;;;;;;;;;5084278;28;19927;-57
2022/08/12 16:16:56;;;;;;;7.38;2.65;;;;;;;;;;5073865;28;20028;-59
2022/08/12 16:19:22;;;;;;;8.13;1.63;;;;;;;;;;5091431;28;20482;-58
2022/08/12 16:21:48;;;;;;;6.30;1.08;;;;;;;;;;5091329;28;20070;-61
2022/08/12 16:24:14;;;;;;;0.90;0.80;;;;;;;;;;5072940;28;20032;-60
2022/08/12 16:26:40;;;;;;;7.00;1.20;;;;;;;;;;5091347;28;20020;-58
2022/08/12 16:29:07;;;;;;;1.50;0.98;;;;;;;;;;5074797;28;20111;-57
2022/08/12 16:31:34;;;;;;;1.60;0.90;;;;;;;;;;5082536;28;20032;-57
2022/08/12 16:34:00;;;;;;;4.13;1.10;;;;;;;;;;5053051;28;20024;-58
2022/08/12 16:36:26;;;;;;;1.95;1.23;;;37.70;28.00;;;;;;5086308;28;20107;-56
2022/08/12 16:38:52;;;;;;;2.25;1.30;;;;;;;;;;5067379;28;20147;-56
2022/08/12 16:41:18;;;;;;;2.75;1.05;;;33.70;30.60;;;;;;5065719;28;20036;-58
2022/08/12 16:43:44;;;;;;;6.55;1.10;;;33.30;31.10;;;;;;5050769;28;20037;-53